Time;durP1;ratioP1;P1;durP2;ratioP2;P2;SDS_P1;SDS_P2;PMS_P1;PMS_P2;Temp;Humidity;BMP_temperature;BMP_pressure;BME280_temperature;BME280_humidity;BME280_pressure;Samples;Min_cycle;Max_cycle;Signal;HPM_P1;HPM_P2
2023/04/27 00:02:13;;;;;;;4.70;2.97;;;;;;;;;;5015541;28;20017;-20
2023/04/27 00:04:39;;;;;;;5.63;2.70;;;;;;;;;;5016033;28;20021;-18
2023/04/27 00:07:05;;;;;;;4.75;3.55;;;;;;;;;;5016178;28;20088;-19
2023/04/27 00:09:31;;;;;;;2.92;2.40;;;;;;;;;;5015922;28;20375;-19
2023/04/27 00:11:57;;;;;;;3.03;2.30;;;;;;;;;;5015500;28;20021;-19
2023/04/27 00:14:27;;;;;;;5.43;2.80;;;;;;;;;;5015571;28;20410;-19
2023/04/27 00:16:53;;;;;;;6.43;2.42;;;;;;;;;;5015462;28;20461;-19
2023/04/27 00:19:19;;;;;;;4.82;2.58;;;;;;;;;;5015509;28;20369;-21
2023/04/27 00:21:46;;;;;;;9.18;2.70;;;;;;;;;;5015388;28;20037;-18
2023/04/27 00:24:12;;;;;;;6.20;2.92;;;;;;;;;;5015722;28;20054;-16
2023/04/27 00:26:38;;;;;;;7.10;2.75;;;;;;;;;;5014575;28;20037;-17
2023/04/27 00:29:04;;;;;;;2.55;2.25;;;;;;;;;;5015870;28;20052;-19
2023/04/27 00:31:30;;;;;;;4.38;2.92;;;;;;;;;;5015563;28;20028;-20
2023/04/27 00:33:56;;;;;;;3.28;2.80;;;;;;;;;;5015203;28;20464;-19
2023/04/27 00:36:22;;;;;;;5.10;3.03;;;;;;;;;;5015469;28;20034;-20
2023/04/27 00:38:48;;;;;;;2.75;2.55;;;;;;;;;;5015420;28;20080;-19
2023/04/27 00:41:14;;;;;;;5.70;2.88;;;;;;;;;;5015399;28;20076;-20
2023/04/27 00:43:42;;;;;;;8.68;2.63;;;;;;;;;;5015086;28;20117;-16
2023/04/27 00:46:09;;;;;;;6.05;3.58;;;;;;;;;;5015539;28;20026;-19
2023/04/27 00:48:36;;;;;;;4.60;2.35;;;;;;;;;;5015287;28;20053;-21
2023/04/27 00:51:02;;;;;;;2.83;2.50;;;;;;;;;;5015260;28;20053;-22
2023/04/27 00:53:29;;;;;;;7.18;3.45;;;;;;;;;;4997619;28;20060;-18
2023/04/27 00:55:57;;;;;;;7.00;2.58;;;;;;;;;;5014995;28;20037;-17
2023/04/27 00:58:23;;;;;;;5.00;2.47;;;;;;;;;;5014880;28;20532;-19
2023/04/27 01:00:49;;;;;;;2.50;2.28;;;;;;;;;;5015187;28;20034;-19
2023/04/27 01:03:16;;;;;;;3.60;2.28;;;;;;;;;;5014761;28;20389;-19
2023/04/27 01:05:42;;;;;;;4.25;2.38;;;;;;;;;;5014815;28;20029;-20
2023/04/27 01:08:08;;;;;;;4.15;2.90;;;;;;;;;;5014827;28;20087;-19
2023/04/27 01:10:36;;;;;;;5.45;2.30;;;;;;;;;;5014868;28;20041;-18
2023/04/27 01:13:02;;;;;;;6.32;2.85;;;;;;;;;;5014686;28;20034;-19
2023/04/27 01:15:29;;;;;;;4.25;2.33;;;;;;;;;;5015051;28;20026;-18
2023/04/27 01:18:02;;;;;;;4.28;2.53;;;;;;;;;;5015009;28;20033;-18
2023/04/27 01:20:29;;;;;;;2.45;2.25;;;;;;;;;;5014720;28;20468;-21
2023/04/27 01:22:58;;;;;;;4.50;2.78;;;;;;;;;;5014649;28;20092;-22
2023/04/27 01:25:25;;;;;;;4.55;2.65;;;;;;;;;;5014528;28;20449;-19
2023/04/27 01:27:52;;;;;;;7.75;3.35;;;;;;;;;;5014655;28;20456;-18
2023/04/27 01:30:18;;;;;;;5.05;3.03;;;;;;;;;;5014885;28;20361;-18
2023/04/27 01:32:44;;;;;;;4.38;2.47;;;;;;;;;;5014544;28;20056;-20
2023/04/27 01:35:10;;;;;;;4.22;2.47;;;;;;;;;;5014613;28;20022;-17
2023/04/27 01:37:36;;;;;;;2.80;2.20;;;;;;;;;;5016501;28;20053;-20
2023/04/27 01:40:05;;;;;;;3.83;2.38;;;;;;;;;;5018367;28;20021;-17
2023/04/27 01:42:31;;;;;;;7.05;2.75;;;;;;;;;;5018296;28;20449;-20
2023/04/27 01:44:59;;;;;;;2.63;2.13;;;;;;;;;;5018216;28;20022;-21
2023/04/27 01:47:25;;;;;;;4.43;2.33;;;;;;;;;;5018862;28;20501;-19
2023/04/27 01:49:51;;;;;;;4.90;2.42;;;;;;;;;;5018506;28;20025;-19
2023/04/27 01:52:17;;;;;;;2.47;2.28;;;;;;;;;;5018376;28;20026;-20
2023/04/27 01:54:44;;;;;;;5.40;2.35;;;;;;;;;;5018161;28;20093;-20
2023/04/27 01:57:10;;;;;;;4.63;2.60;;;;;;;;;;5018412;28;20381;-20
2023/04/27 01:59:36;;;;;;;3.08;2.00;;;;;;;;;;5018093;28;20022;-23
2023/04/27 02:02:02;;;;;;;2.85;2.30;;;;;;;;;;5017972;28;20030;-18
2023/04/27 02:04:28;;;;;;;2.75;1.85;;;;;;;;;;5017848;28;20057;-19
2023/04/27 02:06:54;;;;;;;3.15;2.40;;;;;;;;;;5018161;28;20030;-21
2023/04/27 02:09:21;;;;;;;3.15;2.30;;;;;;;;;;5017883;28;20022;-19
2023/04/27 02:11:47;;;;;;;2.28;2.10;;;;;;;;;;5018035;28;20054;-22
2023/04/27 02:14:14;;;;;;;4.28;2.00;;;;;;;;;;5018053;28;20410;-17
2023/04/27 02:16:40;;;;;;;4.63;2.72;;;;;;;;;;5017811;28;20022;-21
2023/04/27 02:19:07;;;;;;;4.30;2.65;;;;;;;;;;5017686;28;20087;-19
2023/04/27 02:21:33;;;;;;;4.43;2.60;;;;;;;;;;5017690;28;20495;-20
2023/04/27 02:24:00;;;;;;;2.38;1.85;;;;;;;;;;5017851;28;20053;-21
2023/04/27 02:26:28;;;;;;;2.80;2.38;;;;;;;;;;5017457;28;20038;-23
2023/04/27 02:28:55;;;;;;;5.32;2.65;;;;;;;;;;5017650;28;20102;-22
2023/04/27 02:31:22;;;;;;;2.83;2.42;;;;;;;;;;5017457;28;20026;-17
2023/04/27 02:33:48;;;;;;;2.97;1.63;;;;;;;;;;5017339;28;20026;-17
2023/04/27 02:36:14;;;;;;;5.18;2.38;;;;;;;;;;5017654;28;20061;-18
2023/04/27 02:38:40;;;;;;;2.85;2.58;;;;;;;;;;5017589;28;20030;-22
2023/04/27 02:41:06;;;;;;;4.22;1.90;;;;;;;;;;5017322;28;20030;-20
2023/04/27 02:43:32;;;;;;;2.95;1.92;;;;;;;;;;5017215;28;20373;-21
2023/04/27 02:46:04;;;;;;;4.25;1.90;;;;;;;;;;5017165;28;20037;-19
2023/04/27 02:48:31;;;;;;;2.13;2.00;;;;;;;;;;5016742;28;20105;-21
2023/04/27 02:50:57;;;;;;;2.53;2.20;;;;;;;;;;5017275;28;20022;-19
2023/04/27 02:53:23;;;;;;;3.70;2.40;;;;;;;;;;5016996;28;20117;-18
2023/04/27 02:55:50;;;;;;;3.47;2.35;;;;;;;;;;5017082;28;20037;-18
2023/04/27 02:58:17;;;;;;;1.92;1.80;;;;;;;;;;5017266;28;20022;-22
2023/04/27 03:00:44;;;;;;;4.68;2.50;;;;;;;;;;5017689;28;20105;-19
2023/04/27 03:03:10;;;;;;;4.18;2.65;;;;;;;;;;5017007;28;20049;-16
2023/04/27 03:05:36;;;;;;;4.30;2.10;;;;;;;;;;5016827;28;20076;-16
2023/04/27 03:08:03;;;;;;;3.22;2.28;;;;;;;;;;5016814;28;20022;-18
2023/04/27 03:10:29;;;;;;;2.88;2.17;;;;;;;;;;5016704;28;20032;-19
2023/04/27 03:12:55;;;;;;;3.45;2.53;;;;;;;;;;5017157;28;20084;-20
2023/04/27 03:15:21;;;;;;;4.38;2.45;;;;;;;;;;5016717;28;20457;-21
2023/04/27 03:17:48;;;;;;;2.78;2.00;;;;;;;;;;5016896;28;20030;-20
2023/04/27 03:20:14;;;;;;;7.07;2.60;;;;;;;;;;5016632;28;20418;-21
2023/04/27 03:22:40;;;;;;;3.17;2.35;;;;;;;;;;5016652;28;20026;-20
2023/04/27 03:25:06;;;;;;;5.18;2.90;;;;;;;;;;5016481;28;20373;-19
2023/04/27 03:27:32;;;;;;;3.92;2.50;;;;;;;;;;5016463;28;20461;-19
2023/04/27 03:29:58;;;;;;;2.60;2.40;;;;;;;;;;5016654;28;20033;-19
2023/04/27 03:32:24;;;;;;;3.17;2.40;;;;;;;;;;5016298;28;20076;-19
2023/04/27 03:34:51;;;;;;;2.63;2.40;;;;;;;;;;5016302;28;20347;-17
2023/04/27 03:37:17;;;;;;;2.92;2.30;;;;;;;;;;5016199;28;20091;-20
2023/04/27 03:39:44;;;;;;;4.53;2.53;;;;;;;;;;5016109;28;20025;-23
2023/04/27 03:42:10;;;;;;;2.35;2.15;;;;;;;;;;5016325;28;20137;-21
2023/04/27 03:44:36;;;;;;;5.07;2.22;;;;;;;;;;5016097;28;20029;-19
2023/04/27 03:47:02;;;;;;;1.98;1.77;;;;;;;;;;5016178;28;20026;-17
2023/04/27 03:49:28;;;;;;;3.88;2.05;;;;;;;;;;5015958;28;20022;-17
2023/04/27 03:51:55;;;;;;;2.63;2.35;;;;;;;;;;5015820;28;20022;-21
2023/04/27 03:54:21;;;;;;;2.00;1.88;;;;;;;;;;5016159;28;20373;-18
2023/04/27 03:56:47;;;;;;;2.70;2.42;;;;;;;;;;5016059;28;20025;-20
2023/04/27 03:59:13;;;;;;;2.63;2.20;;;;;;;;;;5015744;28;20484;-20
2023/04/27 04:01:40;;;;;;;3.97;2.42;;;;;;;;;;5015588;28;20029;-19
2023/04/27 04:04:06;;;;;;;4.65;3.58;;;;;;;;;;5015322;28;20060;-21
2023/04/27 04:06:32;;;;;;;2.38;1.90;;;;;;;;;;5015760;28;20040;-20
2023/04/27 04:08:58;;;;;;;2.35;2.10;;;;;;;;;;5015527;28;20358;-22
2023/04/27 04:11:26;;;;;;;3.45;2.28;;;;;;;;;;5015471;28;20101;-22
2023/04/27 04:13:52;;;;;;;5.10;2.30;;;;;;;;;;5015235;28;20088;-18
2023/04/27 04:16:18;;;;;;;2.25;1.95;;;;;;;;;;5015692;28;20030;-18
2023/04/27 04:18:44;;;;;;;2.45;2.20;;;;;;;;;;5015480;28;20416;-22
2023/04/27 04:21:10;;;;;;;4.10;2.53;;;;;;;;;;5015194;28;20509;-23
2023/04/27 04:23:37;;;;;;;3.40;2.40;;;;;;;;;;4997585;28;20029;-22
2023/04/27 04:26:04;;;;;;;4.70;2.25;;;;;;;;;;5015044;28;20483;-20
2023/04/27 04:28:30;;;;;;;4.03;2.03;;;;;;;;;;5015010;28;20030;-21
2023/04/27 04:30:57;;;;;;;4.25;2.53;;;;;;;;;;5015439;28;20037;-22
2023/04/27 04:33:25;;;;;;;2.72;2.28;;;;;;;;;;5015467;28;20053;-20
2023/04/27 04:35:52;;;;;;;5.05;2.22;;;;;;;;;;5014773;28;20026;-22
2023/04/27 04:38:18;;;;;;;3.70;2.60;;;;;;;;;;5014966;28;20029;-20
2023/04/27 04:40:44;;;;;;;2.65;2.42;;;;;;;;;;5014819;28;20030;-19
2023/04/27 04:43:11;;;;;;;4.88;2.33;;;;;;;;;;5015003;28;20037;-23
2023/04/27 04:45:37;;;;;;;2.90;2.13;;;;;;;;;;5014812;28;20113;-20
2023/04/27 04:48:03;;;;;;;4.10;2.33;;;;;;;;;;5014810;28;20053;-20
2023/04/27 04:50:29;;;;;;;3.35;2.55;;;;;;;;;;5014802;28;20133;-19
2023/04/27 04:52:55;;;;;;;3.63;2.10;;;;;;;;;;5014559;28;20061;-20
2023/04/27 04:55:21;;;;;;;7.57;2.55;;;;;;;;;;5014799;28;20133;-21
2023/04/27 04:57:47;;;;;;;10.32;2.58;;;;;;;;;;5014731;28;20404;-20
2023/04/27 05:00:14;;;;;;;3.95;2.28;;;;;;;;;;5015182;28;20069;-19
2023/04/27 05:02:40;;;;;;;2.45;1.70;;;;;;;;;;5014281;28;20076;-22
2023/04/27 05:05:07;;;;;;;7.80;2.40;;;;;;;;;;5014528;28;20061;-21
2023/04/27 05:07:33;;;;;;;5.43;2.10;;;;;;;;;;5014453;28;20037;-24
2023/04/27 05:09:59;;;;;;;4.55;2.50;;;;;;;;;;5014551;28;20073;-21
2023/04/27 05:12:26;;;;;;;4.53;2.63;;;;;;;;;;5017458;28;20462;-18
2023/04/27 05:14:52;;;;;;;6.03;2.65;;;;;;;;;;5021317;28;20384;-19
2023/04/27 05:17:18;;;;;;;2.97;2.28;;;;;;;;;;5021098;28;20361;-17
2023/04/27 05:19:45;;;;;;;5.55;2.40;;;;;;;;;;5021565;28;20104;-20
2023/04/27 05:22:11;;;;;;;4.40;2.25;;;;;;;;;;5020902;28;20049;-23
2023/04/27 05:24:37;;;;;;;2.92;2.17;;;;;;;;;;5021380;28;20022;-23
2023/04/27 05:27:03;;;;;;;3.85;2.35;;;;;;;;;;5020956;28;20372;-20
2023/04/27 05:29:29;;;;;;;2.30;2.10;;;;;;;;;;5021061;28;20022;-20
2023/04/27 05:31:56;;;;;;;3.53;2.70;;;;;;;;;;5021074;28;20065;-22
2023/04/27 05:34:22;;;;;;;8.68;3.45;;;;;;;;;;5020836;28;20026;-19
2023/04/27 05:36:48;;;;;;;9.25;2.45;;;;;;;;;;5021060;28;20434;-19
2023/04/27 05:39:14;;;;;;;5.82;2.35;;;;;;;;;;5020478;28;20057;-19
2023/04/27 05:41:40;;;;;;;4.40;1.98;;;;;;;;;;5021088;28;20029;-21
2023/04/27 05:44:06;;;;;;;9.35;2.95;;;;;;;;;;5020552;28;20026;-20
2023/04/27 05:46:33;;;;;;;2.72;2.10;;;;;;;;;;5020450;28;20033;-21
2023/04/27 05:48:59;;;;;;;5.75;2.22;;;;;;;;;;5021243;28;20022;-23
2023/04/27 05:51:25;;;;;;;4.13;2.53;;;;;;;;;;5020559;28;20029;-22
2023/04/27 05:53:54;;;;;;;2.33;2.13;;;;;;;;;;5020448;28;20037;-20
2023/04/27 05:56:20;;;;;;;5.85;3.75;;;;;;;;;;5020361;28;20030;-18
2023/04/27 05:58:46;;;;;;;4.22;2.25;;;;;;;;;;5020574;28;20393;-19
2023/04/27 06:03:48;;;;;;;3.60;2.28;;;;;;;;;;5207144;22;20063;-24
2023/04/27 06:06:14;;;;;;;4.63;2.08;;;;;;;;;;5080466;28;20449;-25
2023/04/27 06:08:40;;;;;;;6.88;2.55;;;;;;;;;;5080449;28;20034;-24
2023/04/27 06:11:07;;;;;;;4.43;2.25;;;;;;;;;;5080791;28;20447;-24
2023/04/27 06:13:33;;;;;;;2.40;1.98;;;;;;;;;;5080657;28;20096;-23
2023/04/27 06:16:00;;;;;;;3.47;2.60;;;;;;;;;;5080693;28;20107;-24
2023/04/27 06:18:26;;;;;;;3.22;2.55;;;;;;;;;;5080707;28;20119;-24
2023/04/27 06:20:52;;;;;;;6.03;2.50;;;;;;;;;;5080682;28;20025;-23
2023/04/27 06:23:18;;;;;;;6.30;2.63;;;;;;;;;;5078940;28;20043;-28
2023/04/27 06:25:44;;;;;;;2.53;2.33;;;;;;;;;;5077853;28;20394;-25
2023/04/27 06:28:10;;;;;;;2.65;2.17;;;;;;;;;;5077806;28;20052;-25
2023/04/27 06:30:36;;;;;;;2.67;2.38;;;;;;;;;;5077185;28;20025;-24
2023/04/27 06:33:02;;;;;;;7.97;2.30;;;;;;;;;;5077238;28;20021;-24
2023/04/27 06:35:29;;;;;;;3.63;2.10;;;;;;;;;;5077968;28;20032;-24
2023/04/27 06:37:57;;;;;;;3.45;2.35;;;;;;;;;;5077038;28;20046;-23
2023/04/27 06:40:24;;;;;;;3.70;1.90;;;;;;;;;;5077012;28;20032;-24
2023/04/27 06:42:50;;;;;;;9.05;2.13;;;;;;;;;;5076767;28;20032;-27
2023/04/27 06:45:16;;;;;;;4.53;2.90;;;;;;;;;;5076743;28;20038;-23
2023/04/27 06:47:43;;;;;;;6.03;2.05;;;;;;;;;;5076769;28;20095;-23
2023/04/27 06:50:09;;;;;;;2.60;2.08;;;;;;;;;;5077100;28;20032;-23
2023/04/27 06:52:35;;;;;;;3.25;2.22;;;;;;;;;;5077034;28;20071;-24
2023/04/27 06:55:01;;;;;;;5.25;2.35;;;;;;;;;;5077007;28;20021;-23
2023/04/27 06:57:27;;;;;;;5.15;2.65;;;;;;;;;;5076560;28;20082;-25
2023/04/27 06:59:53;;;;;;;3.58;2.35;;;;;;;;;;5076601;28;20036;-24
2023/04/27 07:02:19;;;;;;;6.20;2.20;;;;;;;;;;5076349;28;20417;-25
2023/04/27 07:04:46;;;;;;;7.60;2.95;;;;;;;;;;5076859;28;20379;-23
2023/04/27 07:07:12;;;;;;;6.47;1.88;;;;;;;;;;5076653;28;20033;-24
2023/04/27 07:09:38;;;;;;;2.40;2.20;;;;;;;;;;5076698;28;20024;-24
2023/04/27 07:12:05;;;;;;;2.78;2.53;;;;;;;;;;5076548;28;20024;-23
2023/04/27 07:14:32;;;;;;;4.03;2.35;;;;;;;;;;5076272;28;20036;-24
2023/04/27 07:16:58;;;;;;;8.02;2.35;;;;;;;;;;5076249;28;20020;-24
2023/04/27 07:19:24;;;;;;;7.82;2.40;;;;;;;;;;5076098;28;20308;-25
2023/04/27 07:21:51;;;;;;;6.72;2.65;;;;;;;;;;5075963;28;20028;-25
2023/04/27 07:24:17;;;;;;;6.40;2.70;;;;;;;;;;5076098;28;20036;-25
2023/04/27 07:26:43;;;;;;;3.53;2.22;;;;;;;;;;5076733;28;20025;-25
2023/04/27 07:29:11;;;;;;;6.22;3.13;;;;;;;;;;5075849;28;20025;-24
2023/04/27 07:31:37;;;;;;;8.55;3.13;;;;;;;;;;5075959;28;20105;-22
2023/04/27 07:34:03;;;;;;;4.32;2.45;;;;;;;;;;5075610;28;20020;-25
2023/04/27 07:36:30;;;;;;;3.80;2.15;;;;;;;;;;5075652;28;20020;-24
2023/04/27 07:38:57;;;;;;;5.43;1.98;;;;;;;;;;5075636;28;20032;-25
2023/04/27 07:41:23;;;;;;;3.33;1.88;;;;;;;;;;5075964;28;20273;-23
2023/04/27 07:43:51;;;;;;;5.43;2.33;;;;;;;;;;5075214;28;20028;-25
2023/04/27 07:46:17;;;;;;;4.35;2.17;;;;;;;;;;5075390;28;20040;-24
2023/04/27 07:48:43;;;;;;;5.63;2.60;;;;;;;;;;5075405;28;20052;-24
2023/04/27 07:51:10;;;;;;;3.00;2.38;;;;;;;;;;5075391;28;20028;-24
2023/04/27 07:53:36;;;;;;;5.47;3.05;;;;;;;;;;5075543;28;20031;-25
2023/04/27 07:56:05;;;;;;;3.33;2.00;;;;;;;;;;5075562;28;20105;-23
2023/04/27 07:58:31;;;;;;;2.72;2.40;;;;;;;;;;5075551;28;20025;-25
2023/04/27 08:00:57;;;;;;;6.13;2.28;;;;;;;;;;5075555;28;20024;-24
2023/04/27 08:03:23;;;;;;;5.85;2.30;;;;;;;;;;5074913;28;20041;-25
2023/04/27 08:05:49;;;;;;;5.40;2.38;;;;;;;;;;5075271;28;20052;-25
2023/04/27 08:08:16;;;;;;;3.67;2.13;;;;;;;;;;5075327;28;20107;-23
2023/04/27 08:10:42;;;;;;;8.90;2.70;;;;;;;;;;5075052;28;20014;-23
2023/04/27 08:13:08;;;;;;;7.13;2.03;;;;;;;;;;5074826;28;20511;-23
2023/04/27 08:15:35;;;;;;;5.63;2.20;;;;;;;;;;5075295;28;20435;-23
2023/04/27 08:18:01;;;;;;;3.40;2.03;;;;;;;;;;5074978;28;20036;-23
2023/04/27 08:20:27;;;;;;;6.03;2.15;;;;;;;;;;5075147;28;20060;-24
2023/04/27 08:22:53;;;;;;;6.93;2.22;;;;;;;;;;5057034;28;20048;-26
2023/04/27 08:25:20;;;;;;;4.18;2.17;;;;;;;;;;5075648;28;20032;-25
2023/04/27 08:27:46;;;;;;;7.07;2.20;;;;;;;;;;5074674;28;20016;-27
2023/04/27 08:30:12;;;;;;;5.43;2.38;;;;;;;;;;5074916;28;20055;-24
2023/04/27 08:32:38;;;;;;;2.85;2.17;;;;;;;;;;5074864;28;20352;-23
2023/04/27 08:35:06;;;;;;;5.25;2.38;;;;;;;;;;5074533;28;20056;-24
2023/04/27 08:37:32;;;;;;;6.72;2.05;;;;;;;;;;5074550;28;20074;-25
2023/04/27 08:39:58;;;;;;;4.60;1.95;;;;;;;;;;5074484;28;20024;-24
2023/04/27 08:42:25;;;;;;;4.05;2.47;;;;;;;;;;5074706;28;20444;-23
2023/04/27 08:44:51;;;;;;;7.28;2.50;;;;;;;;;;5074726;28;20032;-22
2023/04/27 08:47:17;;;;;;;2.42;2.22;;;;;;;;;;5073967;28;20044;-23
2023/04/27 08:49:43;;;;;;;2.63;2.08;;;;;;;;;;5074373;28;20455;-23
2023/04/27 08:52:16;;;;;;;3.65;2.10;;;;;;;;;;5074630;28;20100;-26
2023/04/27 08:54:43;;;;;;;3.97;1.67;;;;;;;;;;5075186;28;20450;-24
2023/04/27 08:57:13;;;;;;;4.43;2.30;;;;;;;;;;5074494;28;20082;-23
2023/04/27 08:59:45;;;;;;;7.30;2.15;;;;;;;;;;5074302;28;20055;-27
2023/04/27 09:02:20;;;;;;;5.60;2.10;;;;;;;;;;5073976;28;20439;-25
2023/04/27 09:04:46;;;;;;;3.30;2.17;;;;;;;;;;5074627;28;20040;-25
2023/04/27 09:07:16;;;;;;;3.88;2.20;;;;;;;;;;5073945;28;20043;-25
2023/04/27 09:09:43;;;;;;;5.15;2.35;;;;;;;;;;5073948;28;20025;-24
2023/04/27 09:12:16;;;;;;;2.22;2.03;;;;;;;;;;5073918;28;20447;-23
2023/04/27 09:14:43;;;;;;;3.85;3.17;;;;;;;;;;5074218;28;20401;-23
2023/04/27 09:17:09;;;;;;;2.05;1.80;;;;;;;;;;5074388;28;20087;-23
2023/04/27 09:19:35;;;;;;;2.95;2.42;;;;;;;;;;5074204;28;20402;-24
2023/04/27 09:22:09;;;;;;;7.75;2.85;;;;;;;;;;5073944;28;20036;-23
2023/04/27 09:24:36;;;;;;;8.75;2.95;;;;;;;;;;5073812;28;20052;-25
2023/04/27 09:27:03;;;;;;;5.47;2.88;;;;;;;;;;5073718;28;20020;-25
2023/04/27 09:29:33;;;;;;;4.35;1.98;;;;;;;;;;5073761;28;20158;-23
2023/04/27 09:31:59;;;;;;;3.67;2.55;;;;;;;;;;5073844;28;20459;-23
2023/04/27 09:34:25;;;;;;;6.53;2.50;;;;;;;;;;5073781;28;20033;-25
2023/04/27 09:36:52;;;;;;;7.25;4.68;;;;;;;;;;5074075;28;20355;-25
2023/04/27 09:39:19;;;;;;;5.65;2.33;;;;;;;;;;5074032;28;20358;-25
2023/04/27 09:41:45;;;;;;;2.83;2.53;;;;;;;;;;5073962;28;20025;-25
2023/04/27 09:44:12;;;;;;;3.80;2.67;;;;;;;;;;5074075;28;20032;-25
2023/04/27 09:46:38;;;;;;;17.90;2.53;;;;;;;;;;5074165;28;20024;-26
2023/04/27 09:49:04;;;;;;;5.85;2.35;;;;;;;;;;5073805;28;20336;-24
2023/04/27 09:51:31;;;;;;;3.13;2.38;;;;;;;;;;5074237;28;20095;-25
2023/04/27 09:54:00;;;;;;;7.50;3.08;;;;;;;;;;5073456;28;20520;-24
2023/04/27 09:56:41;;;;;;;2.72;2.45;;;;;;;;;;5073937;28;20103;-24
2023/04/27 09:59:07;;;;;;;;;;;;;;;;;;5076440;28;20020;-24
2023/04/27 10:01:43;;;;;;;7.05;3.00;;;;;;;;;;5077594;28;19940;-24
2023/04/27 10:04:27;;;;;;;2.85;1.90;;;;;;;;;;5077327;28;20045;-23
2023/04/27 10:06:54;;;;;;;3.60;2.10;;;;;;;;;;5077284;28;20035;-25
2023/04/27 10:09:22;;;;;;;6.32;2.83;;;;;;;;;;5077375;28;20459;-27
2023/04/27 10:11:49;;;;;;;3.30;2.08;;;;;;;;;;5077218;28;20104;-25
2023/04/27 10:14:17;;;;;;;5.68;2.25;;;;;;;;;;5077155;28;20024;-23
2023/04/27 10:16:45;;;;;;;5.97;3.65;;;;;;;;;;5077481;28;20100;-24
2023/04/27 10:19:11;;;;;;;7.35;3.22;;;;;;;;;;5077186;28;20029;-24
2023/04/27 10:21:38;;;;;;;3.92;2.70;;;;;;;;;;5077768;28;20024;-23
2023/04/27 10:24:08;;;;;;;8.38;2.22;;;;;;;;;;5077255;28;20039;-22
2023/04/27 10:26:35;;;;;;;5.28;2.15;;;;;;;;;;5077019;28;20031;-24
2023/04/27 10:29:01;;;;;;;3.65;2.00;;;;;;;;;;5077115;28;20340;-24
2023/04/27 10:31:28;;;;;;;6.20;2.53;;;;;;;;;;5077274;28;20355;-24
2023/04/27 10:34:04;;;;;;;5.30;2.15;;;;;;;;;;5076669;28;20035;-26
2023/04/27 10:36:35;;;;;;;6.75;2.60;;;;;;;;;;5077215;28;20039;-25
2023/04/27 10:39:03;;;;;;;4.85;2.33;;;;;;;;;;5076838;28;20024;-23
2023/04/27 10:41:35;;;;;;;2.45;2.25;;;;;;;;;;5076774;28;20116;-26
2023/04/27 10:44:16;;;;;;;7.03;3.30;;;;;;;;;;5076740;28;20112;-24
2023/04/27 10:46:52;;;;;;;12.00;2.63;;;;;;;;;;5076701;28;20028;-24
2023/04/27 10:49:18;;;;;;;5.70;3.53;;;;;;;;;;5077035;28;20096;-26
2023/04/27 10:51:45;;;;;;;3.70;2.35;;;;;;;;;;5076613;28;20043;-24
2023/04/27 10:54:11;;;;;;;6.68;2.00;;;;;;;;;;5076732;28;20110;-23
2023/04/27 10:56:38;;;;;;;9.23;2.50;;;;;;;;;;5076373;28;20374;-23
2023/04/27 10:59:05;;;;;;;11.00;2.80;;;;;;;;;;5076284;28;20093;-24
2023/04/27 11:01:31;;;;;;;6.70;2.60;;;;;;;;;;5076601;28;20402;-23
2023/04/27 11:03:57;;;;;;;4.60;2.30;;;;;;;;;;5075859;28;20109;-23
2023/04/27 11:06:23;;;;;;;5.35;2.65;;;;;;;;;;5076061;28;20035;-23
2023/04/27 11:08:50;;;;;;;2.58;2.13;;;;;;;;;;5076613;28;20025;-25
2023/04/27 11:11:16;;;;;;;6.53;2.90;;;;;;;;;;5075449;28;20093;-25
2023/04/27 11:13:44;;;;;;;5.18;2.88;;;;;;;;;;5076289;28;20028;-26
2023/04/27 11:16:10;;;;;;;5.80;2.53;;;;;;;;;;5075997;28;20035;-25
2023/04/27 11:18:37;;;;;;;4.68;2.30;;;;;;;;;;5076227;28;20435;-24
2023/04/27 11:21:10;;;;;;;5.43;2.17;;;;;;;;;;5075913;28;20028;-25
2023/04/27 11:23:37;;;;;;;3.65;2.95;;;;;;;;;;5075923;28;20363;-23
2023/04/27 11:26:10;;;;;;;3.88;2.22;;;;;;;;;;5075986;28;20044;-23
2023/04/27 11:28:36;;;;;;;2.90;2.60;;;;;;;;;;5075826;28;20024;-25
2023/04/27 11:31:05;;;;;;;6.65;2.75;;;;;;;;;;5075675;28;20024;-24
2023/04/27 11:33:32;;;;;;;6.22;2.50;;;;;;;;;;5075816;28;20024;-24
2023/04/27 11:35:58;;;;;;;2.28;2.08;;;;;;;;;;5075845;28;20025;-25
2023/04/27 11:38:26;;;;;;;10.95;2.92;;;;;;;;;;5075978;28;20029;-23
2023/04/27 11:41:06;;;;;;;2.60;2.17;;;;;;;;;;5075871;28;20028;-25
2023/04/27 11:43:32;;;;;;;8.50;3.70;;;;;;;;;;5075398;28;20035;-24
2023/04/27 11:46:02;;;;;;;7.20;2.38;;;;;;;;;;5075206;28;20058;-25
2023/04/27 11:48:28;;;;;;;6.07;3.90;;;;;;;;;;5075385;28;20024;-24
2023/04/27 11:50:57;;;;;;;2.83;2.30;;;;;;;;;;5075958;28;20025;-25
2023/04/27 11:53:31;;;;;;;7.50;2.88;;;;;;;;;;5075259;28;20024;-23
2023/04/27 11:56:00;;;;;;;3.03;2.20;;;;;;;;;;5075595;28;20025;-23
2023/04/27 11:58:28;;;;;;;6.93;3.30;;;;;;;;;;5075495;28;20465;-24
2023/04/27 12:00:55;;;;;;;4.85;2.53;;;;;;;;;;5075129;28;20024;-23
2023/04/27 12:03:21;;;;;;;2.33;2.13;;;;;;;;;;5074896;28;20195;-25
2023/04/27 12:05:48;;;;;;;4.05;3.30;;;;;;;;;;5074945;28;20055;-23
2023/04/27 12:08:16;;;;;;;3.38;2.90;;;;;;;;;;5075374;28;20351;-23
2023/04/27 12:10:42;;;;;;;3.35;2.63;;;;;;;;;;5075153;28;20024;-23
2023/04/27 12:13:08;;;;;;;3.55;2.58;;;;;;;;;;5057308;28;20435;-23
2023/04/27 12:15:34;;;;;;;3.75;2.55;;;;;;;;;;5075030;28;20029;-23
2023/04/27 12:18:00;;;;;;;7.47;2.70;;;;;;;;;;5074914;28;20025;-23
2023/04/27 12:20:27;;;;;;;2.55;2.30;;;;;;;;;;5075124;28;20063;-27
2023/04/27 12:22:53;;;;;;;3.15;2.53;;;;;;;;;;5073788;28;20099;-25
2023/04/27 12:25:20;;;;;;;4.53;3.03;;;;;;;;;;5074682;28;20067;-24
2023/04/27 12:27:47;;;;;;;4.13;3.00;;;;;;;;;;5074946;28;20032;-24
2023/04/27 12:30:14;;;;;;;6.40;2.28;;;;;;;;;;5074879;28;20028;-25
2023/04/27 12:32:40;;;;;;;5.25;3.20;;;;;;;;;;5074688;28;20032;-25
2023/04/27 12:35:07;;;;;;;3.53;3.22;;;;;;;;;;5075168;28;20029;-25
2023/04/27 12:37:34;;;;;;;3.42;2.50;;;;;;;;;;5074733;28;20111;-24
2023/04/27 12:40:00;;;;;;;4.28;2.70;;;;;;;;;;5074631;28;20035;-23
2023/04/27 12:42:26;;;;;;;3.30;2.97;;;;;;;;;;5074509;28;20028;-25
2023/04/27 12:44:53;;;;;;;3.70;2.40;;;;;;;;;;5074590;28;20024;-25
2023/04/27 12:47:22;;;;;;;2.88;2.67;;;;;;;;;;5074523;28;20035;-24
2023/04/27 12:49:49;;;;;;;7.20;3.17;;;;;;;;;;5074748;28;20021;-24
2023/04/27 12:52:15;;;;;;;7.28;3.40;;;;;;;;;;5075143;28;20094;-24
2023/04/27 12:54:42;;;;;;;7.47;3.00;;;;;;;;;;5074776;28;20025;-23
2023/04/27 12:57:08;;;;;;;3.15;2.20;;;;;;;;;;5074713;28;20021;-24
2023/04/27 12:59:35;;;;;;;3.53;2.65;;;;;;;;;;5074476;28;20028;-23
2023/04/27 13:02:02;;;;;;;8.70;2.50;;;;;;;;;;5074121;28;20039;-25
2023/04/27 13:04:29;;;;;;;6.22;2.58;;;;;;;;;;5074232;28;20463;-25
2023/04/27 13:06:58;;;;;;;5.53;2.55;;;;;;;;;;5074242;28;20024;-22
2023/04/27 13:09:25;;;;;;;6.13;4.05;;;;;;;;;;5074693;28;20020;-24
2023/04/27 13:11:51;;;;;;;3.65;2.55;;;;;;;;;;5074282;28;20424;-23
2023/04/27 13:14:18;;;;;;;4.97;2.58;;;;;;;;;;5074574;28;20048;-23
2023/04/27 13:16:44;;;;;;;2.50;2.28;;;;;;;;;;5074345;28;20021;-24
2023/04/27 13:19:10;;;;;;;5.00;3.03;;;;;;;;;;5074386;28;20035;-25
2023/04/27 13:21:37;;;;;;;7.43;4.18;;;;;;;;;;5074341;28;20090;-24
2023/04/27 13:24:03;;;;;;;4.45;2.63;;;;;;;;;;5074277;28;20067;-25
2023/04/27 13:26:29;;;;;;;6.68;3.00;;;;;;;;;;5074547;28;20024;-25
2023/04/27 13:28:56;;;;;;;3.47;3.05;;;;;;;;;;5075083;28;20020;-24
2023/04/27 13:31:22;;;;;;;6.15;2.40;;;;;;;;;;5075129;28;20115;-24
2023/04/27 13:33:48;;;;;;;5.40;3.28;;;;;;;;;;5076478;28;20028;-23
2023/04/27 13:36:14;;;;;;;4.57;3.28;;;;;;;;;;5078310;28;20020;-23
2023/04/27 13:38:40;;;;;;;4.93;2.72;;;;;;;;;;5078194;28;20094;-23
2023/04/27 13:41:06;;;;;;;3.25;2.60;;;;;;;;;;5078398;28;20021;-27
2023/04/27 13:43:33;;;;;;;7.72;3.42;;;;;;;;;;5078079;28;20103;-24
2023/04/27 13:46:00;;;;;;;3.03;2.70;;;;;;;;;;5078034;28;20044;-23
2023/04/27 13:48:26;;;;;;;6.22;2.78;;;;;;;;;;5078406;28;20121;-25
2023/04/27 13:50:55;;;;;;;4.53;2.72;;;;;;;;;;5078557;28;20021;-23
2023/04/27 13:53:25;;;;;;;5.03;3.10;;;;;;;;;;5078134;28;20024;-25
2023/04/27 13:55:52;;;;;;;3.22;2.65;;;;;;;;;;5078073;28;20038;-24
2023/04/27 13:58:18;;;;;;;6.55;3.63;;;;;;;;;;5078116;28;20024;-23
2023/04/27 14:00:46;;;;;;;4.20;2.75;;;;;;;;;;5077835;28;20359;-24
2023/04/27 14:03:13;;;;;;;5.82;3.17;;;;;;;;;;5077462;28;20052;-24
2023/04/27 14:05:39;;;;;;;5.15;2.53;;;;;;;;;;5077585;28;20036;-24
2023/04/27 14:08:05;;;;;;;4.82;3.10;;;;;;;;;;5077657;28;20020;-24
2023/04/27 14:10:31;;;;;;;2.95;2.70;;;;;;;;;;5077638;28;20064;-23
2023/04/27 14:12:57;;;;;;;2.65;2.42;;;;;;;;;;5077500;28;20039;-23
2023/04/27 14:15:23;;;;;;;5.28;2.53;;;;;;;;;;5078078;28;20093;-24
2023/04/27 14:17:49;;;;;;;4.05;2.92;;;;;;;;;;5077766;28;20045;-26
2023/04/27 14:20:16;;;;;;;4.13;3.45;;;;;;;;;;5077379;28;20025;-24
2023/04/27 14:22:42;;;;;;;6.65;2.63;;;;;;;;;;5077573;28;20020;-24
2023/04/27 14:25:08;;;;;;;3.92;2.42;;;;;;;;;;5077569;28;20016;-24
2023/04/27 14:27:34;;;;;;;5.10;2.92;;;;;;;;;;5077240;28;20039;-22
2023/04/27 14:30:01;;;;;;;4.18;2.90;;;;;;;;;;5077142;28;20028;-23
2023/04/27 14:32:27;;;;;;;3.17;2.88;;;;;;;;;;5077394;28;20024;-24
2023/04/27 14:34:53;;;;;;;7.00;3.03;;;;;;;;;;5077126;28;20056;-23
2023/04/27 14:37:19;;;;;;;3.75;3.03;;;;;;;;;;5077878;28;20025;-24
2023/04/27 14:39:45;;;;;;;3.25;2.42;;;;;;;;;;5077007;28;20055;-25
2023/04/27 14:42:12;;;;;;;3.85;3.40;;;;;;;;;;5077156;28;20210;-25
2023/04/27 14:44:38;;;;;;;5.05;2.95;;;;;;;;;;5076697;28;20025;-24